Time;durP1;ratioP1;P1;durP2;ratioP2;P2;SDS_P1;SDS_P2;PMS_P1;PMS_P2;Temp;Humidity;BMP_temperature;BMP_pressure;BME280_temperature;BME280_humidity;BME280_pressure;Samples;Min_cycle;Max_cycle;Signal;HPM_P1;HPM_P2
2023/07/31 00:02:07;;;;;;;13.13;8.82;;;;;;;;;;4919107;29;20048;-83
2023/07/31 00:04:52;;;;;;;12.18;8.80;;;;;;;;;;4918871;29;20048;-83
2023/07/31 00:07:38;;;;;;;11.75;8.98;;;;;;;;;;4918899;29;20044;-83
2023/07/31 00:10:23;;;;;;;14.65;9.05;;;;;;;;;;4919282;29;20052;-83
2023/07/31 00:13:09;;;;;;;12.20;10.38;;;;;;;;;;4919061;29;20048;-83
2023/07/31 00:15:55;;;;;;;14.77;9.63;;;;;;;;;;4919680;29;20466;-83
2023/07/31 00:18:40;;;;;;;12.85;9.57;;;;;;;;;;4918950;29;20040;-82
2023/07/31 00:21:26;;;;;;;14.00;10.25;;;;;;;;;;4918863;29;20048;-82
2023/07/31 00:24:11;;;;;;;10.40;9.18;;;;;;;;;;4918512;29;20060;-83
2023/07/31 00:26:57;;;;;;;16.08;9.43;;;;;;;;;;4924328;29;20056;-83
2023/07/31 00:29:42;;;;;;;14.18;9.10;;;;;;;;;;4930618;29;20040;-83
2023/07/31 00:32:28;;;;;;;14.77;8.45;;;;;;;;;;4918162;29;20055;-83
2023/07/31 00:35:14;;;;;;;17.35;8.48;;;;;;;;;;4923591;29;20040;-84
2023/07/31 00:38:00;;;;;;;12.95;8.52;;;;;;;;;;4917507;29;20402;-83
2023/07/31 00:40:45;;;;;;;12.88;8.93;;;;;;;;;;4918453;29;20044;-83
2023/07/31 00:43:31;;;;;;;16.85;10.15;;;;;;;;;;4924055;29;20052;-84
2023/07/31 00:46:16;;;;;;;18.08;9.32;;;;;;;;;;4918140;29;20048;-84
2023/07/31 00:49:02;;;;;;;14.65;8.93;;;;;;;;;;4923448;29;20044;-83
2023/07/31 00:51:47;;;;;;;13.48;9.57;;;;;;;;;;4918134;29;20490;-83
2023/07/31 00:54:33;;;;;;;13.80;9.75;;;;;;;;;;4923839;29;20414;-83
2023/07/31 00:57:18;;;;;;;21.55;10.18;;;;;;;;;;4918127;29;20052;-84
2023/07/31 01:00:05;;;;;;;12.32;9.85;;;;;;;;;;4917605;29;20064;-83
2023/07/31 01:02:51;;;;;;;17.73;10.23;;;;;;;;;;4923830;29;20466;-84
2023/07/31 01:05:49;;;;;;;15.48;9.93;;;;;;;;;;4917968;29;20044;-83
2023/07/31 01:08:42;;;;;;;13.15;9.80;;;;;;;;;;4918001;29;20040;-83
2023/07/31 01:11:33;;;;;;;15.07;9.35;;;;;;;;;;4917306;29;20056;-84
2023/07/31 01:14:19;;;;;;;12.38;8.88;;;;;;;;;;4929909;29;20052;-84
2023/07/31 01:17:05;;;;;;;13.93;9.20;;;;;;;;;;4939916;28;20028;-82
2023/07/31 01:19:50;;;;;;;14.07;9.27;;;;;;;;;;4925469;28;20418;-84
2023/07/31 01:22:35;;;;;;;13.93;9.25;;;;;;;;;;4923636;29;20048;-83
2023/07/31 01:25:43;;;;;;;13.85;8.95;;;;;;;;;;4916647;29;20048;-82
2023/07/31 01:28:43;;;;;;;14.02;9.27;;;;;;;;;;4922913;29;20052;-82
2023/07/31 01:31:30;;;;;;;15.32;9.25;;;;;;;;;;4919205;29;20037;-82
2023/07/31 01:34:17;;;;;;;12.25;9.20;;;;;;;;;;4917559;29;20036;-81
2023/07/31 01:37:06;;;;;;;17.48;9.10;;;;;;;;;;4936076;29;20047;-81
2023/07/31 01:39:51;;;;;;;15.55;9.30;;;;;;;;;;4922808;29;20047;-82
2023/07/31 01:42:36;;;;;;;13.93;8.60;;;;;;;;;;4903163;29;20048;-82
2023/07/31 01:45:21;;;;;;;15.63;9.60;;;;;;;;;;4922988;29;20048;-81
2023/07/31 01:48:06;;;;;;;11.27;8.88;;;;;;;;;;4936068;29;20043;-82
2023/07/31 01:50:53;;;;;;;12.32;9.05;;;;;;;;;;4929441;29;20052;-82
2023/07/31 01:58:23;;;;;;;;;;;;;;;;;;;;;
2023/07/31 02:01:42;;;;;;;16.45;8.93;;;;;;;;;;4916570;29;20040;-81
2023/07/31 02:04:27;;;;;;;16.17;8.65;;;;;;;;;;4936102;29;20048;-80
2023/07/31 02:07:13;;;;;;;14.38;8.50;;;;;;;;;;4922508;29;20044;-80
2023/07/31 02:09:59;;;;;;;10.80;8.23;;;;;;;;;;4909240;29;20044;-80
2023/07/31 02:12:47;;;;;;;16.27;8.70;;;;;;;;;;4920883;29;20052;-81
2023/07/31 02:15:31;;;;;;;12.30;8.52;;;;;;;;;;4920561;29;20051;-81
2023/07/31 02:18:17;;;;;;;14.85;8.50;;;;;;;;;;4920773;29;20040;-81
2023/07/31 02:21:03;;;;;;;25.52;8.77;;;;;;;;;;4920356;29;20044;-81
2023/07/31 02:23:48;;;;;;;11.10;7.88;;;;;;;;;;4934048;29;20032;-81
2023/07/31 02:26:34;;;;;;;10.23;8.02;;;;;;;;;;4920552;29;20048;-81
2023/07/31 02:29:23;;;;;;;12.90;7.93;;;;;;;;;;4922408;29;20040;-81
2023/07/31 02:32:09;;;;;;;12.95;7.53;;;;;;;;;;4918870;29;20056;-80
2023/07/31 02:34:55;;;;;;;14.25;8.50;;;;;;;;;;4924700;29;20063;-80
2023/07/31 02:37:44;;;;;;;13.10;7.55;;;;;;;;;;4924733;29;20064;-81
2023/07/31 02:40:31;;;;;;;11.75;7.35;;;;;;;;;;4923984;29;20048;-80
2023/07/31 02:43:19;;;;;;;11.07;7.50;;;;;;;;;;4917900;29;20059;-81
2023/07/31 02:46:05;;;;;;;12.50;7.60;;;;;;;;;;4911200;29;20048;-81
2023/07/31 02:48:51;;;;;;;8.07;7.28;;;;;;;;;;4911343;29;20048;-81
2023/07/31 02:51:36;;;;;;;8.27;7.28;;;;;;;;;;4924337;29;20052;-82
2023/07/31 02:54:21;;;;;;;9.55;7.50;;;;;;;;;;4924155;29;20048;-81
2023/07/31 02:57:06;;;;;;;11.35;7.53;;;;;;;;;;4924430;29;20056;-82
2023/07/31 02:59:52;;;;;;;9.23;7.55;;;;;;;;;;4918487;29;20418;-82
2023/07/31 03:02:37;;;;;;;9.00;7.63;;;;;;;;;;4924360;29;20043;-82
2023/07/31 03:05:23;;;;;;;11.07;7.70;;;;;;;;;;4924161;29;20044;-85
2023/07/31 03:08:09;;;;;;;8.63;7.63;;;;;;;;;;4919122;29;20040;-83
2023/07/31 03:10:54;;;;;;;13.27;7.65;;;;;;;;;;4918975;29;20040;-83
2023/07/31 03:13:41;;;;;;;20.38;7.20;;;;;;;;;;4924088;29;20048;-83
2023/07/31 03:16:26;;;;;;;12.43;8.00;;;;;;;;;;4924094;29;20410;-83
2023/07/31 03:19:12;;;;;;;13.98;7.57;;;;;;;;;;4917146;29;20040;-84
2023/07/31 03:21:58;;;;;;;14.02;8.27;;;;;;;;;;4918872;29;20048;-84
2023/07/31 03:24:43;;;;;;;11.32;7.88;;;;;;;;;;4918876;29;20402;-83
2023/07/31 03:27:29;;;;;;;15.55;8.85;;;;;;;;;;4917660;29;20040;-84
2023/07/31 03:30:14;;;;;;;10.50;8.63;;;;;;;;;;4937134;28;20036;-86
2023/07/31 03:33:01;;;;;;;15.75;8.57;;;;;;;;;;4936244;28;20044;-84
2023/07/31 03:35:47;;;;;;;17.30;8.68;;;;;;;;;;4919960;29;20048;-84
2023/07/31 03:38:32;;;;;;;11.80;8.38;;;;;;;;;;4923899;29;20410;-84
2023/07/31 03:41:18;;;;;;;15.50;8.60;;;;;;;;;;4930426;29;20048;-84
2023/07/31 03:44:04;;;;;;;12.45;9.32;;;;;;;;;;4918404;29;20056;-84
2023/07/31 03:46:50;;;;;;;12.40;7.88;;;;;;;;;;4918406;29;20398;-83
2023/07/31 03:49:38;;;;;;;12.30;8.27;;;;;;;;;;4923425;29;20055;-81
2023/07/31 03:52:24;;;;;;;13.65;8.77;;;;;;;;;;4917019;29;20594;-81
2023/07/31 03:55:10;;;;;;;17.58;9.23;;;;;;;;;;4918044;29;20052;-81
2023/07/31 03:57:55;;;;;;;12.38;9.00;;;;;;;;;;4917791;29;20494;-80
2023/07/31 04:00:41;;;;;;;15.60;8.73;;;;;;;;;;4922627;29;20048;-80
2023/07/31 04:03:26;;;;;;;10.32;9.30;;;;;;;;;;4917732;29;20106;-80
2023/07/31 04:06:12;;;;;;;17.17;9.05;;;;;;;;;;4917455;29;20040;-80
2023/07/31 04:08:58;;;;;;;14.70;9.75;;;;;;;;;;4929679;29;20044;-79
2023/07/31 04:11:43;;;;;;;10.90;8.95;;;;;;;;;;4917274;29;20047;-82
2023/07/31 04:14:29;;;;;;;13.70;8.55;;;;;;;;;;4917599;29;20044;-83
2023/07/31 04:17:14;;;;;;;9.93;8.60;;;;;;;;;;4917830;29;20048;-83
2023/07/31 04:20:00;;;;;;;12.88;8.82;;;;;;;;;;4922875;29;20044;-83
2023/07/31 04:22:45;;;;;;;9.88;7.82;;;;;;;;;;4917284;29;20490;-83
2023/07/31 04:25:31;;;;;;;11.45;8.40;;;;;;;;;;4917358;29;20313;-83
2023/07/31 04:28:17;;;;;;;14.40;8.38;;;;;;;;;;4916202;29;20056;-83
2023/07/31 04:31:03;;;;;;;14.45;8.18;;;;;;;;;;4916945;29;20394;-81
2023/07/31 04:33:48;;;;;;;17.15;8.13;;;;;;;;;;4916983;29;20044;-81
2023/07/31 04:36:34;;;;;;;14.73;7.90;;;;;;;;;;4916971;29;20040;-81
2023/07/31 04:39:20;;;;;;;20.60;7.93;;;;;;;;;;4917072;29;20039;-81
2023/07/31 04:42:06;;;;;;;15.23;7.88;;;;;;;;;;4928723;29;20051;-82
2023/07/31 04:44:53;;;;;;;11.32;7.80;;;;;;;;;;4916924;29;20044;-81
2023/07/31 04:47:38;;;;;;;9.25;7.80;;;;;;;;;;4916752;29;20048;-82
2023/07/31 04:50:23;;;;;;;13.82;7.85;;;;;;;;;;4916604;29;20040;-82
2023/07/31 04:53:09;;;;;;;9.80;7.50;;;;;;;;;;4915808;29;20043;-83
2023/07/31 04:55:54;;;;;;;13.32;8.52;;;;;;;;;;4916478;29;20055;-81
2023/07/31 04:58:40;;;;;;;10.98;7.35;;;;;;;;;;4916496;29;20052;-79
2023/07/31 05:01:26;;;;;;;10.75;7.68;;;;;;;;;;4916356;29;20052;-83
2023/07/31 05:04:15;;;;;;;8.55;7.47;;;;;;;;;;4916793;29;20052;-82
2023/07/31 05:07:00;;;;;;;15.38;9.82;;;;;;;;;;4916433;29;20768;-82
2023/07/31 05:09:46;;;;;;;10.27;7.60;;;;;;;;;;4916432;29;20047;-82
2023/07/31 05:12:31;;;;;;;9.52;7.35;;;;;;;;;;4916414;29;20051;-82
2023/07/31 05:15:17;;;;;;;8.80;7.07;;;;;;;;;;4916444;29;20040;-82
2023/07/31 05:18:02;;;;;;;11.98;6.75;;;;;;;;;;4921809;29;20056;-82
2023/07/31 05:20:48;;;;;;;9.55;7.32;;;;;;;;;;4915912;29;20047;-82
2023/07/31 05:23:34;;;;;;;10.18;7.03;;;;;;;;;;4916149;29;20056;-83
2023/07/31 05:26:19;;;;;;;10.68;7.25;;;;;;;;;;4916415;29;20040;-83
2023/07/31 05:29:05;;;;;;;7.40;6.50;;;;;;;;;;4916445;29;20051;-82
2023/07/31 05:31:50;;;;;;;9.63;6.57;;;;;;;;;;4916973;29;20044;-83
2023/07/31 05:34:36;;;;;;;11.65;7.75;;;;;;;;;;4916567;29;20052;-83
2023/07/31 05:37:21;;;;;;;14.18;8.40;;;;;;;;;;4923011;29;20526;-83
2023/07/31 05:40:07;;;;;;;8.45;7.40;;;;;;;;;;4915684;29;20048;-82
2023/07/31 05:42:53;;;;;;;11.18;9.63;;;;;;;;;;4933589;29;20043;-83
2023/07/31 05:45:39;;;;;;;14.95;10.88;;;;;;;;;;4926611;28;20048;-83
2023/07/31 05:48:24;;;;;;;11.45;9.38;;;;;;;;;;4922939;29;20048;-83
2023/07/31 05:51:10;;;;;;;127.72;105.07;;;;;;;;;;4916166;29;20040;-83
2023/07/31 05:53:56;;;;;;;89.55;68.82;;;;;;;;;;4921274;29;20047;-82
2023/07/31 05:56:41;;;;;;;189.90;152.25;;;;;;;;;;4914955;29;20052;-82
2023/07/31 05:59:27;;;;;;;161.25;128.05;;;;;;;;;;4920699;29;20792;-83
2023/07/31 06:02:13;;;;;;;170.15;137.15;;;;;;;;;;4915817;29;20490;-84
2023/07/31 06:04:58;;;;;;;115.85;91.50;;;;;;;;;;4918726;29;20052;-82
2023/07/31 06:07:43;;;;;;;394.95;319.60;;;;;;;;;;4925165;29;20056;-81
2023/07/31 06:10:28;;;;;;;72.80;59.40;;;;;;;;;;4919734;29;20455;-82
2023/07/31 06:13:14;;;;;;;16.15;9.77;;;;;;;;;;4919624;29;20040;-83
2023/07/31 06:16:00;;;;;;;21.45;14.45;;;;;;;;;;4919697;29;20044;-82
2023/07/31 06:18:45;;;;;;;14.18;10.48;;;;;;;;;;4919702;29;20494;-83
2023/07/31 06:21:31;;;;;;;22.50;10.70;;;;;;;;;;4919336;29;20036;-83
2023/07/31 06:24:20;;;;;;;16.60;10.95;;;;;;;;;;4919489;29;20402;-82
2023/07/31 06:27:05;;;;;;;12.63;10.80;;;;;;;;;;4919538;29;20056;-83
2023/07/31 06:29:51;;;;;;;16.50;12.15;;;;;;;;;;4919455;29;20048;-82
2023/07/31 06:32:36;;;;;;;16.95;11.95;;;;;;;;;;4931479;29;20061;-83
2023/07/31 06:35:22;;;;;;;17.83;10.82;;;;;;;;;;4919235;29;20056;-83
2023/07/31 06:38:07;;;;;;;16.13;11.73;;;;;;;;;;4918177;29;20048;-84
2023/07/31 06:40:53;;;;;;;13.23;10.98;;;;;;;;;;4918631;29;20040;-83
2023/07/31 06:43:40;;;;;;;13.70;9.45;;;;;;;;;;4920049;29;20052;-83
2023/07/31 06:46:25;;;;;;;9.57;8.05;;;;;;;;;;4918115;29;20051;-85
2023/07/31 06:49:10;;;;;;;13.43;8.45;;;;;;;;;;4924515;29;20048;-85
2023/07/31 06:51:56;;;;;;;12.27;9.65;;;;;;;;;;4925648;29;20051;-84
2023/07/31 06:54:42;;;;;;;10.93;8.88;;;;;;;;;;4918780;29;20056;-84
2023/07/31 06:57:27;;;;;;;11.35;9.27;;;;;;;;;;4916336;29;20490;-85
2023/07/31 07:00:13;;;;;;;12.55;10.45;;;;;;;;;;4920747;29;20040;-82
2023/07/31 07:02:59;;;;;;;14.85;10.95;;;;;;;;;;4916354;29;20143;-85
2023/07/31 07:05:44;;;;;;;10.90;8.18;;;;;;;;;;4923464;29;20506;-84
2023/07/31 07:08:29;;;;;;;9.77;8.43;;;;;;;;;;4918399;29;20395;-83
2023/07/31 07:11:15;;;;;;;9.48;5.35;;;;;;;;;;4918603;29;20040;-83
2023/07/31 07:14:01;;;;;;;13.18;7.38;;;;;;;;;;4918140;29;20048;-83
2023/07/31 07:16:51;;;;;;;8.80;6.35;;;;;;;;;;4930535;29;20047;-83
2023/07/31 07:19:36;;;;;;;10.55;7.03;;;;;;;;;;4916791;29;20056;-84
2023/07/31 07:22:22;;;;;;;6.05;4.68;;;;;;;;;;4918454;29;20056;-83
2023/07/31 07:25:08;;;;;;;5.63;4.30;;;;;;;;;;4918350;29;20048;-83
2023/07/31 07:27:53;;;;;;;5.22;4.18;;;;;;;;;;4923003;29;20040;-84
2023/07/31 07:30:39;;;;;;;5.65;3.40;;;;;;;;;;4918090;29;20052;-82
2023/07/31 07:33:24;;;;;;;3.58;3.13;;;;;;;;;;4928039;29;20505;-83
2023/07/31 07:36:09;;;;;;;4.18;2.65;;;;;;;;;;4920691;29;20048;-83
2023/07/31 07:38:56;;;;;;;5.15;3.13;;;;;;;;;;4915213;29;20048;-82
2023/07/31 07:41:40;;;;;;;4.47;2.83;;;;;;;;;;4920325;29;20478;-84
2023/07/31 07:44:27;;;;;;;3.67;2.85;;;;;;;;;;4921093;29;20040;-82
2023/07/31 07:47:12;;;;;;;3.92;2.83;;;;;;;;;;4918504;29;20055;-81
2023/07/31 07:50:27;;;;;;;4.93;2.78;;;;;;;;;;4920400;29;20048;-83
2023/07/31 07:53:16;;;;;;;3.22;2.15;;;;;;;;;;4927449;29;20048;-81
2023/07/31 07:56:02;;;;;;;5.30;2.83;;;;;;;;;;4942500;29;20120;-81
2023/07/31 07:58:51;;;;;;;3.95;2.25;;;;;;;;;;4920942;29;20032;-81
2023/07/31 08:01:35;;;;;;;5.20;3.25;;;;;;;;;;4918078;29;20052;-86
2023/07/31 08:04:21;;;;;;;6.03;2.92;;;;;;;;;;4918473;29;20048;-84
2023/07/31 08:07:07;;;;;;;7.63;3.45;;;;;;;;;;4937021;29;20043;-76
2023/07/31 08:09:52;;;;;;;2.80;2.40;;;;;;;;;;4916722;29;20056;-80
2023/07/31 08:12:38;;;;;;;4.47;2.80;;;;;;;;;;4916597;29;20044;-80
2023/07/31 08:15:25;;;;;;;4.68;2.85;;;;;;;;;;4917217;29;20056;-77
2023/07/31 08:18:11;;;;;;;5.85;2.67;;;;;;;;;;4916981;29;20048;-79
2023/07/31 08:20:57;;;;;;;5.22;2.42;;;;;;;;;;4915590;29;20052;-82
2023/07/31 08:23:44;;;;;;;3.97;2.25;;;;;;;;;;4916901;29;20071;-82
2023/07/31 08:26:29;;;;;;;3.85;2.20;;;;;;;;;;4916410;29;20052;-83
2023/07/31 08:29:14;;;;;;;3.17;2.40;;;;;;;;;;4916704;29;20048;-83
2023/07/31 08:32:00;;;;;;;3.60;1.80;;;;;;;;;;4918167;29;20060;-76
2023/07/31 08:34:46;;;;;;;4.78;2.38;;;;;;;;;;4917873;29;20048;-77
2023/07/31 08:37:31;;;;;;;3.72;1.90;;;;;;;;;;4918949;29;20052;-76
2023/07/31 08:40:17;;;;;;;4.43;2.20;;;;;;;;;;4915908;29;20048;-78
2023/07/31 08:43:03;;;;;;;2.97;2.30;;;;;;;;;;4922937;29;20048;-78
2023/07/31 08:45:49;;;;;;;3.25;2.20;;;;;;;;;;4915718;29;20056;-78
2023/07/31 08:48:37;;;;;;;3.45;1.80;;;;;;;;;;4916487;29;20047;-77
2023/07/31 08:51:26;;;;;;;2.72;1.90;;;;;;;;;;4921683;29;20048;-77
2023/07/31 08:54:12;;;;;;;3.67;2.28;;;;;;;;;;4916459;29;20051;-79
2023/07/31 08:56:59;;;;;;;2.63;2.20;;;;;;;;;;4922695;29;20044;-80
2023/07/31 08:59:45;;;;;;;5.53;2.45;;;;;;;;;;4916142;29;20052;-80
2023/07/31 09:02:51;;;;;;;6.80;3.50;;;;;;;;;;4922037;29;20044;-79
2023/07/31 09:05:39;;;;;;;3.22;2.00;;;;;;;;;;4915559;29;20056;-79
2023/07/31 09:08:29;;;;;;;3.45;2.00;;;;;;;;;;4916838;29;20490;-76
2023/07/31 09:11:14;;;;;;;2.83;1.67;;;;;;;;;;4925572;29;20664;-75
2023/07/31 09:14:01;;;;;;;3.88;1.92;;;;;;;;;;4916477;29;20495;-75
2023/07/31 09:16:55;;;;;;;4.65;2.10;;;;;;;;;;4916117;29;20051;-76
2023/07/31 09:19:40;;;;;;;1.70;1.60;;;;;;;;;;4916267;29;20541;-77
2023/07/31 09:22:35;;;;;;;1.70;1.60;;;;;;;;;;4915640;29;20044;-80
2023/07/31 09:25:25;;;;;;;1.65;1.40;;;;;;;;;;4917559;29;20048;-77
2023/07/31 09:28:11;;;;;;;3.75;1.83;;;;;;;;;;4917726;29;20048;-77
2023/07/31 09:30:56;;;;;;;2.22;1.60;;;;;;;;;;4916921;29;20047;-78
2023/07/31 09:34:00;;;;;;;5.10;2.40;;;;;;;;;;4916668;29;20048;-77
2023/07/31 09:36:48;;;;;;;2.23;1.57;;;;;;;;;;4915949;29;20040;-76
2023/07/31 09:39:45;;;;;;;5.07;1.50;;;;;;;;;;4915979;29;20051;-77
2023/07/31 09:42:31;;;;;;;4.60;2.00;;;;;;;;;;4915994;29;20483;-76
2023/07/31 09:45:18;;;;;;;3.25;1.67;;;;;;;;;;4916019;29;20048;-76
2023/07/31 09:48:11;;;;;;;2.53;1.55;;;;;;;;;;4915913;29;20048;-75
2023/07/31 09:51:04;;;;;;;3.53;2.65;;;;;;;;;;4916685;29;20044;-77
2023/07/31 09:53:50;;;;;;;1.50;1.40;;;;;;;;;;4923184;29;20048;-76
2023/07/31 09:56:36;;;;;;;1.70;1.40;;;;;;;;;;4916082;29;20055;-78
2023/07/31 09:59:22;;;;;;;1.30;1.20;;;;;;;;;;4916112;29;20055;-77
2023/07/31 10:02:14;;;;;;;1.42;1.17;;;;;;;;;;4921760;29;20060;-78
2023/07/31 10:05:03;;;;;;;2.38;1.38;;;;;;;;;;4923224;29;20048;-79
2023/07/31 10:07:55;;;;;;;3.65;1.60;;;;;;;;;;4928449;29;20060;-78
2023/07/31 10:10:45;;;;;;;2.15;1.27;;;;;;;;;;4926907;29;20044;-79
2023/07/31 10:13:32;;;;;;;1.83;1.50;;;;;;;;;;4922455;29;20051;-78
2023/07/31 10:16:18;;;;;;;2.45;1.30;;;;;;;;;;4934814;29;20048;-79
2023/07/31 10:19:03;;;;;;;2.17;1.20;;;;;;;;;;4916004;29;20077;-80
2023/07/31 10:21:49;;;;;;;3.63;1.40;;;;;;;;;;4922025;29;20040;-80
2023/07/31 10:24:36;;;;;;;2.88;1.55;;;;;;;;;;4915666;29;20044;-81
2023/07/31 10:27:22;;;;;;;1.65;1.20;;;;;;;;;;4921884;29;20055;-80
2023/07/31 10:30:20;;;;;;;1.83;1.38;;;;;;;;;;4916602;29;20052;-79
2023/07/31 10:33:06;;;;;;;1.50;1.20;;;;;;;;;;4921990;29;20051;-81
2023/07/31 10:36:17;;;;;;;1.58;1.27;;;;;;;;;;4917540;29;20064;-76
2023/07/31 10:39:04;;;;;;;4.13;1.40;;;;;;;;;;4921740;29;20056;-79
2023/07/31 10:41:50;;;;;;;1.67;1.15;;;;;;;;;;4915967;29;20041;-78
2023/07/31 10:44:35;;;;;;;1.92;1.25;;;;;;;;;;4922849;29;20047;-77
2023/07/31 10:47:21;;;;;;;1.80;1.27;;;;;;;;;;4923122;29;20044;-77
2023/07/31 10:50:21;;;;;;;2.70;1.48;;;;;;;;;;4924888;29;20410;-76
2023/07/31 10:53:08;;;;;;;2.83;1.40;;;;;;;;;;4920821;29;20052;-75
2023/07/31 10:55:59;;;;;;;3.03;1.70;;;;;;;;;;4940360;29;20040;-78
2023/07/31 10:58:46;;;;;;;2.05;1.40;;;;;;;;;;4922838;29;20060;-75
2023/07/31 11:01:57;;;;;;;2.33;1.70;;;;;;;;;;4919846;29;20045;-77
2023/07/31 11:04:43;;;;;;;1.67;1.40;;;;;;;;;;4920715;29;20518;-77
2023/07/31 11:07:46;;;;;;;1.75;1.42;;;;;;;;;;4919983;29;20044;-78
2023/07/31 11:10:31;;;;;;;1.38;1.27;;;;;;;;;;4920080;29;20044;-78
2023/07/31 11:13:19;;;;;;;5.63;1.60;;;;;;;;;;4934836;29;20040;-76
2023/07/31 11:16:05;;;;;;;2.00;1.58;;;;;;;;;;4920984;29;20056;-77
2023/07/31 11:18:53;;;;;;;2.15;1.63;;;;;;;;;;4926590;29;20040;-77
2023/07/31 11:21:38;;;;;;;1.90;1.30;;;;;;;;;;4926125;29;20044;-77
2023/07/31 11:24:24;;;;;;;1.40;1.30;;;;;;;;;;4926195;29;20482;-75
2023/07/31 11:27:08;;;;;;;3.42;1.35;;;;;;;;;;4919807;29;20059;-75
2023/07/31 11:29:53;;;;;;;2.33;1.13;;;;;;;;;;4918447;29;20044;-76
2023/07/31 11:32:39;;;;;;;1.90;1.52;;;;;;;;;;4917851;29;20044;-76
2023/07/31 11:35:25;;;;;;;2.33;1.50;;;;;;;;;;4923134;29;20048;-78
2023/07/31 11:38:30;;;;;;;4.65;1.52;;;;;;;;;;4917872;29;20052;-77
2023/07/31 11:41:16;;;;;;;2.28;1.50;;;;;;;;;;4924057;29;20040;-76
2023/07/31 11:44:37;;;;;;;1.75;1.20;;;;;;;;;;4918341;29;20052;-78
2023/07/31 11:47:22;;;;;;;1.90;1.48;;;;;;;;;;4917867;29;20044;-77
2023/07/31 11:50:11;;;;;;;2.30;1.58;;;;;;;;;;4923724;29;20055;-78
2023/07/31 11:53:03;;;;;;;1.55;1.40;;;;;;;;;;4923731;29;20044;-78
2023/07/31 11:55:49;;;;;;;2.60;1.40;;;;;;;;;;4917563;29;20052;-79
2023/07/31 11:58:36;;;;;;;1.77;1.45;;;;;;;;;;4923958;29;20044;-78
2023/07/31 12:01:22;;;;;;;3.30;1.60;;;;;;;;;;4915315;29;20418;-78
2023/07/31 12:04:08;;;;;;;2.50;1.77;;;;;;;;;;4916817;29;20051;-77
2023/07/31 12:06:54;;;;;;;2.60;1.70;;;;;;;;;;4917576;29;20056;-78
2023/07/31 12:09:52;;;;;;;3.45;1.40;;;;;;;;;;4924031;29;20043;-78
2023/07/31 12:12:37;;;;;;;1.85;1.65;;;;;;;;;;4917436;29;20482;-78
2023/07/31 12:15:29;;;;;;;1.60;1.50;;;;;;;;;;4917984;29;20051;-76
2023/07/31 12:18:28;;;;;;;1.98;1.52;;;;;;;;;;4923464;29;20502;-78
2023/07/31 12:21:13;;;;;;;2.58;1.85;;;;;;;;;;4930723;29;20040;-78
2023/07/31 12:23:58;;;;;;;2.80;1.80;;;;;;;;;;4924814;29;20044;-77
2023/07/31 12:26:49;;;;;;;2.83;1.90;;;;;;;;;;4919458;29;20048;-79
2023/07/31 12:29:38;;;;;;;2.67;1.80;;;;;;;;;;4924081;29;20056;-76
2023/07/31 12:32:29;;;;;;;1.98;1.70;;;;;;;;;;4916915;29;20056;-79
2023/07/31 12:35:15;;;;;;;2.95;1.73;;;;;;;;;;4916632;29;20048;-78
2023/07/31 12:38:01;;;;;;;1.80;1.70;;;;;;;;;;4916734;29;20044;-78
2023/07/31 12:40:47;;;;;;;3.72;1.95;;;;;;;;;;4922880;29;20052;-76
2023/07/31 12:43:38;;;;;;;2.30;1.90;;;;;;;;;;4924862;29;20044;-76
2023/07/31 12:46:23;;;;;;;3.15;1.92;;;;;;;;;;4917636;29;20043;-78
2023/07/31 12:49:09;;;;;;;4.53;1.92;;;;;;;;;;4916584;29;20052;-77
2023/07/31 12:51:54;;;;;;;3.30;1.80;;;;;;;;;;4922961;29;20479;-76
2023/07/31 12:54:39;;;;;;;3.22;2.00;;;;;;;;;;4922717;29;20044;-75
2023/07/31 12:57:26;;;;;;;1.67;1.58;;;;;;;;;;4923841;29;20052;-78
2023/07/31 13:00:15;;;;;;;2.30;1.90;;;;;;;;;;4916561;29;20044;-78
2023/07/31 13:03:01;;;;;;;4.35;2.00;;;;;;;;;;4922622;29;20048;-77
2023/07/31 13:05:47;;;;;;;5.00;1.88;;;;;;;;;;4917478;29;20044;-79
2023/07/31 13:08:32;;;;;;;5.57;1.85;;;;;;;;;;4923575;29;20047;-79
2023/07/31 13:11:18;;;;;;;2.45;1.70;;;;;;;;;;4916031;29;20043;-76
2023/07/31 13:14:03;;;;;;;5.15;1.90;;;;;;;;;;4915723;29;20052;-76
2023/07/31 13:16:48;;;;;;;2.63;1.60;;;;;;;;;;4916193;29;20043;-77
2023/07/31 13:19:34;;;;;;;4.25;1.60;;;;;;;;;;4922363;29;20052;-78
2023/07/31 13:22:19;;;;;;;2.75;1.50;;;;;;;;;;4915748;29;20041;-78
2023/07/31 13:25:06;;;;;;;5.25;1.75;;;;;;;;;;4934591;29;20052;-78
2023/07/31 13:27:51;;;;;;;7.57;1.80;;;;;;;;;;4916604;29;20056;-79
2023/07/31 13:30:36;;;;;;;2.72;1.80;;;;;;;;;;4920204;29;20052;-77
2023/07/31 13:33:22;;;;;;;2.78;1.70;;;;;;;;;;4922798;29;20463;-76
2023/07/31 13:36:07;;;;;;;3.17;1.80;;;;;;;;;;4915754;29;20044;-77
2023/07/31 13:38:53;;;;;;;2.92;1.98;;;;;;;;;;4915992;29;20044;-79
2023/07/31 13:41:38;;;;;;;2.88;1.70;;;;;;;;;;4914493;29;20060;-76
2023/07/31 13:44:24;;;;;;;3.08;1.80;;;;;;;;;;4915613;29;20056;-79
2023/07/31 13:47:10;;;;;;;5.93;1.88;;;;;;;;;;4934432;29;20056;-78
2023/07/31 13:49:55;;;;;;;4.43;1.95;;;;;;;;;;4934133;29;20040;-76
2023/07/31 13:52:41;;;;;;;2.10;1.50;;;;;;;;;;4921926;29;20494;-76
2023/07/31 13:55:26;;;;;;;3.65;1.95;;;;;;;;;;4914389;29;20052;-78
2023/07/31 13:58:11;;;;;;;2.33;1.80;;;;;;;;;;4921778;29;20051;-77
2023/07/31 14:00:56;;;;;;;3.17;2.20;;;;;;;;;;4916570;29;20048;-77
2023/07/31 14:03:42;;;;;;;2.70;2.00;;;;;;;;;;4916566;29;20056;-78
2023/07/31 14:06:28;;;;;;;3.22;2.05;;;;;;;;;;4917176;29;20044;-76
2023/07/31 14:09:14;;;;;;;3.22;2.05;;;;;;;;;;4917086;29;20056;-79
2023/07/31 14:11:59;;;;;;;2.63;1.90;;;;;;;;;;4922193;29;20044;-76
2023/07/31 14:14:44;;;;;;;3.33;2.25;;;;;;;;;;4916862;29;20043;-77
2023/07/31 14:17:30;;;;;;;4.53;2.50;;;;;;;;;;4923090;29;20044;-76
2023/07/31 14:20:15;;;;;;;3.28;2.10;;;;;;;;;;4922319;29;20491;-78
2023/07/31 14:23:01;;;;;;;3.33;2.33;;;;;;;;;;4916923;29;20044;-77
2023/07/31 14:25:47;;;;;;;2.10;1.90;;;;;;;;;;4919301;29;20048;-76
2023/07/31 14:28:32;;;;;;;2.75;2.10;;;;;;;;;;4920858;29;20474;-78
2023/07/31 14:31:18;;;;;;;2.10;1.55;;;;;;;;;;4921145;29;20494;-76
2023/07/31 14:34:04;;;;;;;2.30;1.88;;;;;;;;;;4927300;29;20399;-76
2023/07/31 14:36:49;;;;;;;1.85;1.70;;;;;;;;;;4922178;29;20056;-75
2023/07/31 14:39:35;;;;;;;1.98;1.70;;;;;;;;;;4920725;29;20052;-78
2023/07/31 14:42:21;;;;;;;3.08;1.98;;;;;;;;;;4920532;29;20052;-75
2023/07/31 14:45:07;;;;;;;4.22;2.13;;;;;;;;;;4926083;29;20044;-76
2023/07/31 14:47:53;;;;;;;4.18;2.13;;;;;;;;;;4921283;29;20052;-76
2023/07/31 14:50:38;;;;;;;4.32;2.20;;;;;;;;;;4927668;29;20044;-78
2023/07/31 14:53:24;;;;;;;4.55;2.53;;;;;;;;;;4920702;29;20043;-75
2023/07/31 14:56:10;;;;;;;4.78;2.00;;;;;;;;;;4926942;29;20040;-79
2023/07/31 14:58:57;;;;;;;4.05;2.35;;;;;;;;;;4918209;29;20052;-78
2023/07/31 15:01:42;;;;;;;2.42;1.90;;;;;;;;;;4923372;29;20044;-77
2023/07/31 15:04:28;;;;;;;3.65;1.85;;;;;;;;;;4918572;29;20056;-77
2023/07/31 15:07:15;;;;;;;2.50;1.92;;;;;;;;;;4924645;29;20044;-78
2023/07/31 15:10:02;;;;;;;2.72;2.00;;;;;;;;;;4924963;29;20052;-78
2023/07/31 15:12:48;;;;;;;3.85;1.90;;;;;;;;;;4924987;29;20040;-76
2023/07/31 15:15:33;;;;;;;3.45;1.90;;;;;;;;;;4918355;29;20483;-78
2023/07/31 15:18:19;;;;;;;3.25;1.88;;;;;;;;;;4918545;29;20040;-76
2023/07/31 15:21:06;;;;;;;3.42;2.05;;;;;;;;;;4923521;29;20589;-75
2023/07/31 15:23:51;;;;;;;3.03;1.90;;;;;;;;;;4925207;29;20048;-77
2023/07/31 15:26:37;;;;;;;3.58;2.20;;;;;;;;;;4918583;29;20052;-78
2023/07/31 15:29:23;;;;;;;4.65;1.88;;;;;;;;;;4918616;29;20040;-77
2023/07/31 15:32:08;;;;;;;3.65;2.15;;;;;;;;;;4918010;29;20048;-78
2023/07/31 15:34:53;;;;;;;4.50;2.50;;;;;;;;;;4917901;29;20039;-76
2023/07/31 15:37:39;;;;;;;3.33;2.10;;;;;;;;;;4918260;29;20048;-76
2023/07/31 15:40:25;;;;;;;5.65;2.30;;;;;;;;;;4918447;29;20052;-76
2023/07/31 15:43:10;;;;;;;10.00;2.55;;;;;;;;;;4923995;29;20447;-77
2023/07/31 15:45:56;;;;;;;3.17;2.10;;;;;;;;;;4917703;29;20040;-75
2023/07/31 15:48:41;;;;;;;2.63;2.08;;;;;;;;;;4916864;29;20044;-75
2023/07/31 15:51:27;;;;;;;3.22;2.13;;;;;;;;;;4916533;29;20052;-75
2023/07/31 15:54:13;;;;;;;4.47;2.65;;;;;;;;;;4916726;29;20051;-75
2023/07/31 15:56:59;;;;;;;4.93;2.95;;;;;;;;;;4923939;29;20056;-82
2023/07/31 15:59:44;;;;;;;4.70;2.95;;;;;;;;;;4917861;29;20052;-80
2023/07/31 16:02:29;;;;;;;4.95;2.92;;;;;;;;;;4924503;29;20055;-80
2023/07/31 16:05:15;;;;;;;4.93;2.97;;;;;;;;;;4918202;29;20390;-77
2023/07/31 16:08:00;;;;;;;8.30;3.28;;;;;;;;;;4917389;29;20048;-79
2023/07/31 16:10:46;;;;;;;5.32;3.20;;;;;;;;;;4924449;29;20040;-79
2023/07/31 16:13:32;;;;;;;7.00;3.00;;;;;;;;;;4917247;29;20386;-79
2023/07/31 16:16:19;;;;;;;4.70;2.88;;;;;;;;;;4917354;29;20052;-79
2023/07/31 16:19:05;;;;;;;5.60;2.65;;;;;;;;;;4916450;29;20051;-78
2023/07/31 16:21:51;;;;;;;7.82;4.90;;;;;;;;;;4917097;29;20052;-79
2023/07/31 16:24:36;;;;;;;5.05;3.13;;;;;;;;;;4916927;29;20051;-78
2023/07/31 16:27:24;;;;;;;6.13;3.05;;;;;;;;;;4917130;29;20414;-79
2023/07/31 16:30:10;;;;;;;4.35;3.10;;;;;;;;;;4916920;29;20398;-78
2023/07/31 16:32:55;;;;;;;6.28;3.17;;;;;;;;;;4923329;29;20040;-79
2023/07/31 16:35:40;;;;;;;6.72;3.78;;;;;;;;;;4916549;29;20048;-78
2023/07/31 16:38:26;;;;;;;5.47;3.20;;;;;;;;;;4916881;29;20048;-79
2023/07/31 16:41:11;;;;;;;6.88;3.60;;;;;;;;;;4921964;29;20055;-78